Time;durP1;ratioP1;P1;durP2;ratioP2;P2;SDS_P1;SDS_P2;PMS_P1;PMS_P2;Temp;Humidity;BMP_temperature;BMP_pressure;BME280_temperature;BME280_humidity;BME280_pressure;Samples;Min_cycle;Max_cycle;Signal;HPM_P1;HPM_P2
2021/01/17 05:04:19;;;;;;;22.73;12.32;;;;;;;-2.52;75.21;100188.75;4910843;29;20047;-45
2021/01/17 05:06:49;;;;;;;19.60;10.68;;;;;;;-2.62;76.17;100194.03;4874777;29;20041;-49
2021/01/17 05:09:20;;;;;;;21.90;11.65;;;;;;;-2.56;76.45;100200.59;4899108;29;20039;-50
2021/01/17 05:11:51;;;;;;;17.50;9.18;;;;;;;-2.48;76.38;100200.75;4929470;28;20066;-50
2021/01/17 05:14:27;;;;;;;16.55;8.98;;;;;;;-2.52;75.36;100198.50;4933968;28;20043;-50
2021/01/17 05:16:57;;;;;;;20.30;11.52;;;;;;;-2.64;76.65;100198.63;4936097;28;20047;-47
2021/01/17 05:19:22;;;;;;;20.42;12.35;;;;;;;-2.64;76.19;100189.84;4934536;28;20042;-45
2021/01/17 05:21:50;;;;;;;27.50;13.80;;;;;;;-2.65;76.40;100188.16;4934365;28;20104;-47
2021/01/17 05:24:18;;;;;;;23.33;12.20;;;;;;;-2.80;77.57;100197.47;4952419;28;20129;-54
2021/01/17 05:26:57;;;;;;;22.88;12.25;;;;;;;-2.97;77.48;100194.47;4934655;28;20062;-49
2021/01/17 05:29:24;;;;;;;22.45;12.57;;;;;;;-2.77;76.33;100199.84;4950561;28;20053;-46
2021/01/17 05:32:04;;;;;;;23.02;12.50;;;;;;;-2.88;78.01;100187.53;4932675;28;20042;-51
2021/01/17 05:34:31;;;;;;;25.60;12.85;;;;;;;-3.04;77.86;100192.50;4967075;28;20475;-50
2021/01/17 05:37:07;;;;;;;23.52;11.70;;;;;;;-2.85;78.25;100187.28;4966771;28;20070;-48
2021/01/17 05:40:09;;;;;;;21.65;11.57;;;;;;;-2.94;78.24;100198.66;4965196;28;20093;-48
2021/01/17 05:42:44;;;;;;;25.30;12.90;;;;;;;-2.97;78.52;100196.28;4889975;29;20064;-44
2021/01/17 05:45:12;;;;;;;27.55;13.00;;;;;;;-3.01;77.89;100200.19;4927488;28;20508;-48
2021/01/17 05:47:39;;;;;;;23.75;12.48;;;;;;;-3.03;78.08;100191.53;4933678;28;20035;-50
2021/01/17 05:50:10;;;;;;;20.27;11.57;;;;;;;-3.08;77.10;100197.19;4949245;28;20053;-50
2021/01/17 05:52:36;;;;;;;24.98;12.88;;;;;;;-3.19;77.08;100186.72;4935991;28;20039;-49
2021/01/17 05:55:03;;;;;;;23.45;13.00;;;;;;;-3.20;78.11;100192.13;4934104;28;20081;-47
2021/01/17 05:57:30;;;;;;;20.85;11.05;;;;;;;-3.24;78.38;100190.75;4934512;28;20050;-50
2021/01/17 05:59:56;;;;;;;24.98;12.50;;;;;;;-3.32;77.74;100188.72;4933160;28;20074;-46
2021/01/17 06:02:24;;;;;;;24.30;12.10;;;;;;;-3.59;77.81;100189.28;4933580;28;20035;-49
2021/01/17 06:04:57;;;;;;;21.92;12.00;;;;;;;-3.58;77.55;100185.69;4934170;28;20126;-48
2021/01/17 06:07:24;;;;;;;23.23;11.50;;;;;;;-3.69;77.88;100193.63;4933132;28;20050;-48
2021/01/17 06:10:00;;;;;;;22.05;11.65;;;;;;;-3.89;78.33;100195.31;4937052;28;20053;-46
2021/01/17 06:12:33;;;;;;;22.92;11.98;;;;;;;-3.83;78.33;100201.91;4968884;28;20073;-48
2021/01/17 06:15:04;;;;;;;24.25;13.15;;;;;;;-3.73;77.50;100202.81;4953595;28;20054;-49
2021/01/17 06:17:32;;;;;;;23.95;12.80;;;;;;;-3.55;77.41;100189.84;4954602;28;20031;-50
2021/01/17 06:20:09;;;;;;;25.50;13.05;;;;;;;-3.45;77.66;100188.94;4951323;28;20535;-48
2021/01/17 06:22:36;;;;;;;24.60;12.82;;;;;;;-3.35;77.54;100189.84;4952514;28;20042;-47
2021/01/17 06:25:05;;;;;;;23.05;11.73;;;;;;;-3.20;77.31;100194.78;4948330;28;20038;-47
2021/01/17 06:27:32;;;;;;;23.92;12.63;;;;;;;-3.09;76.55;100195.53;4932901;28;20531;-50
2021/01/17 06:29:59;;;;;;;32.38;13.55;;;;;;;-3.05;76.58;100196.09;4941750;28;20088;-49
2021/01/17 06:32:30;;;;;;;23.48;12.13;;;;;;;-3.07;78.37;100190.94;4943977;29;20050;-48
2021/01/17 06:34:58;;;;;;;24.55;12.55;;;;;;;-2.95;77.60;100202.28;4931871;29;20070;-49
2021/01/17 06:37:28;;;;;;;24.48;13.90;;;;;;;-2.75;76.66;100204.00;4930545;29;20047;-44
2021/01/17 06:39:57;;;;;;;22.92;13.13;;;;;;;-2.75;76.09;100204.00;4939244;28;20077;-45
2021/01/17 06:42:23;;;;;;;24.42;12.43;;;;;;;-2.73;76.85;100212.66;4972317;28;20078;-49
2021/01/17 06:44:51;;;;;;;25.77;12.77;;;;;;;-2.82;75.97;100207.34;4950642;28;20046;-47
2021/01/17 06:47:25;;;;;;;24.60;12.88;;;;;;;-2.89;77.17;100199.13;4946437;28;20039;-53
2021/01/17 06:49:55;;;;;;;24.38;11.88;;;;;;;-2.96;77.53;100209.38;4963506;28;20437;-45
2021/01/17 06:52:22;;;;;;;22.80;12.75;;;;;;;-3.08;77.26;100214.88;4951794;28;20435;-48
2021/01/17 06:54:49;;;;;;;21.92;12.93;;;;;;;-2.94;78.17;100210.06;4948152;28;20546;-50
2021/01/17 06:57:16;;;;;;;22.63;12.25;;;;;;;-2.91;78.45;100214.28;4967050;28;20045;-47
2021/01/17 06:59:47;;;;;;;23.73;12.57;;;;;;;-2.85;77.80;100216.38;4979084;28;20052;-51
2021/01/17 07:02:13;;;;;;;28.13;12.82;;;;;;;-2.79;77.56;100215.84;4960414;28;20045;-47
2021/01/17 07:04:47;;;;;;;21.52;11.15;;;;;;;-2.64;77.34;100218.94;4967963;28;20038;-50
2021/01/17 07:07:25;;;;;;;29.00;12.07;;;;;;;-2.64;77.14;100217.13;4964375;28;20038;-45
2021/01/17 07:10:01;;;;;;;26.27;12.48;;;;;;;-2.67;77.32;100222.72;4983369;28;20045;-48
2021/01/17 07:12:46;;;;;;;22.02;12.10;;;;;;;-2.64;76.73;100226.88;4976312;28;20062;-47
2021/01/17 07:15:14;;;;;;;19.83;11.13;;;;;;;-2.64;77.61;100221.59;4966142;28;20529;-48
2021/01/17 07:17:42;;;;;;;25.83;13.75;;;;;;;-2.65;76.92;100222.56;4966150;28;20129;-46
2021/01/17 07:20:13;;;;;;;24.90;11.57;;;;;;;-2.70;77.75;100220.34;4966620;28;20041;-45
2021/01/17 07:22:42;;;;;;;18.63;11.23;;;;;;;-2.64;76.81;100221.59;4990835;28;20068;-48
2021/01/17 07:25:10;;;;;;;21.73;12.15;;;;;;;-2.53;77.31;100226.78;4966532;28;20046;-49
2021/01/17 07:28:07;;;;;;;25.10;12.60;;;;;;;-2.42;77.20;100231.16;4966918;28;20050;-50
2021/01/17 07:30:56;;;;;;;24.50;12.90;;;;;;;-2.45;77.77;100229.63;4969069;28;20097;-48
2021/01/17 07:33:28;;;;;;;24.05;12.02;;;;;;;-2.47;77.12;100223.59;4973806;28;20121;-47
2021/01/17 07:35:57;;;;;;;24.70;13.00;;;;;;;-2.50;77.12;100236.28;4980050;28;20070;-48
2021/01/17 07:38:30;;;;;;;23.48;11.55;;;;;;;-2.40;78.12;100235.31;4977140;28;20121;-49
2021/01/17 07:41:10;;;;;;;24.80;13.20;;;;;;;-2.37;76.54;100236.88;4961445;28;20197;-46
2021/01/17 07:43:42;;;;;;;21.35;11.63;;;;;;;-2.25;76.31;100241.06;4955566;28;24699;-49
2021/01/17 07:46:16;;;;;;;25.42;12.75;;;;;;;-2.15;75.91;100235.78;4974089;28;20062;-47
2021/01/17 07:48:44;;;;;;;23.58;12.13;;;;;;;-2.01;76.22;100238.88;4982057;28;20037;-46
2021/01/17 07:51:11;;;;;;;22.52;11.75;;;;;;;-1.93;76.66;100241.66;4970838;28;20041;-48
2021/01/17 07:53:36;;;;;;;23.10;12.18;;;;;;;-1.79;75.58;100245.72;4969835;28;20444;-49
2021/01/17 07:56:16;;;;;;;27.77;12.50;;;;;;;-1.79;75.66;100239.59;4966718;28;20042;-47
2021/01/17 07:58:48;;;;;;;22.05;12.30;;;;;;;-1.76;75.45;100247.28;4947317;28;20042;-47
2021/01/17 08:01:33;;;;;;;23.40;12.38;;;;;;;-1.61;75.07;100245.84;4951576;28;20526;-47
2021/01/17 08:04:02;;;;;;;24.40;13.15;;;;;;;-1.64;74.15;100247.00;4947091;28;20280;-50
2021/01/17 08:06:37;;;;;;;25.30;12.07;;;;;;;-1.62;73.29;100255.66;4967852;28;20199;-47
2021/01/17 08:09:11;;;;;;;21.33;11.88;;;;;;;-1.57;72.18;100255.22;4978703;28;20041;-50
2021/01/17 08:11:56;;;;;;;22.35;12.43;;;;;;;-1.47;72.85;100258.69;4962721;28;20849;-51
2021/01/17 08:14:33;;;;;;;22.85;11.80;;;;;;;-1.20;71.73;100248.19;4966413;28;20380;-50
2021/01/17 08:17:13;;;;;;;21.05;11.85;;;;;;;-1.30;72.05;100252.69;4987528;28;20535;-49
2021/01/17 08:19:53;;;;;;;23.20;11.73;;;;;;;-1.16;72.33;100246.94;4969206;28;20044;-49
2021/01/17 08:22:22;;;;;;;20.25;11.93;;;;;;;-1.21;71.73;100251.81;4954830;28;20042;-47
2021/01/17 08:24:52;;;;;;;21.75;11.80;;;;;;;-1.18;71.76;100253.38;4951446;28;20038;-46
2021/01/17 08:27:27;;;;;;;24.10;12.35;;;;;;;-1.15;71.11;100242.44;4959714;28;20076;-46
2021/01/17 08:30:08;;;;;;;26.17;12.85;;;;;;;-1.05;71.02;100242.44;4968453;28;20045;-47
2021/01/17 08:32:53;;;;;;;16.02;9.77;;;;;;;-1.04;71.42;100252.91;4950183;28;20085;-50
2021/01/17 08:35:19;;;;;;;20.65;11.85;;;;;;;-0.87;71.98;100238.88;4950765;28;20447;-46
2021/01/17 08:38:08;;;;;;;22.40;12.27;;;;;;;-0.91;70.75;100244.63;4949891;28;20048;-45
2021/01/17 08:40:34;;;;;;;24.63;12.52;;;;;;;-0.75;70.94;100242.19;4972788;28;20042;-49
2021/01/17 08:43:02;;;;;;;20.90;12.27;;;;;;;-0.76;71.02;100248.47;4950442;28;20503;-46
2021/01/17 08:45:27;;;;;;;22.40;12.18;;;;;;;-0.62;70.23;100255.97;4950672;28;20052;-49
2021/01/17 08:48:00;;;;;;;26.33;13.10;;;;;;;-0.67;70.31;100255.56;4949487;28;20457;-46
2021/01/17 08:50:38;;;;;;;20.85;11.45;;;;;;;-0.58;69.84;100261.84;4982068;28;20122;-49
2021/01/17 08:53:10;;;;;;;22.42;11.35;;;;;;;-0.75;70.89;100258.13;4975974;28;20495;-44
2021/01/17 08:55:36;;;;;;;20.83;11.45;;;;;;;-0.68;71.29;100255.69;4950317;28;20046;-47
2021/01/17 08:58:03;;;;;;;21.40;12.65;;;;;;;-0.50;69.68;100269.91;4967224;28;20046;-50
2021/01/17 09:00:53;;;;;;;22.02;12.00;;;;;;;-0.50;69.01;100269.91;4951405;28;20043;-51
2021/01/17 09:03:26;;;;;;;22.38;11.93;;;;;;;-0.26;68.87;100264.06;4949149;28;20070;-51
2021/01/17 09:05:54;;;;;;;20.88;11.55;;;;;;;-0.30;68.62;100265.31;4949308;28;20515;-46
2021/01/17 09:08:36;;;;;;;21.15;11.30;;;;;;;-0.33;67.56;100273.59;4961359;28;20554;-49
2021/01/17 09:11:04;;;;;;;21.98;11.43;;;;;;;-0.37;66.86;100279.22;4972009;28;20038;-49
2021/01/17 09:14:30;;;;;;;24.90;12.00;;;;;;;-0.26;67.53;100280.00;5100505;27;20919;-60
2021/01/17 09:16:59;;;;;;;26.90;12.30;;;;;;;-0.51;68.41;100294.78;5042887;28;20131;-60
2021/01/17 09:23:02;;;;;;;20.85;12.10;;;;;;;-0.87;69.80;100297.28;4667370;26;20049;-62
2021/01/17 09:25:29;;;;;;;20.70;11.70;;;;;;;1.15;79.12;100297.78;4999277;28;20042;-61
2021/01/17 09:27:55;;;;;;;32.47;12.50;;;;;;;1.28;66.01;100298.16;4998164;28;20034;-62
2021/01/17 09:30:22;;;;;;;23.90;13.32;;;;;;;0.67;67.45;100301.75;4999825;28;20484;-61
2021/01/17 09:32:50;;;;;;;22.25;11.90;;;;;;;-0.01;65.87;100304.06;4978984;28;20100;-62
2021/01/17 09:35:17;;;;;;;18.83;10.48;;;;;;;-0.28;67.61;100298.72;4979697;28;20116;-61
2021/01/17 09:37:43;;;;;;;20.52;10.93;;;;;;;-0.03;66.92;100302.53;4980156;28;20066;-61
2021/01/17 09:40:11;;;;;;;21.05;12.57;;;;;;;-0.24;66.61;100309.91;4977501;28;20069;-62
2021/01/17 09:42:41;;;;;;;23.17;11.38;;;;;;;-0.30;67.49;100316.63;4995716;28;20503;-62
2021/01/17 09:45:08;;;;;;;20.20;11.80;;;;;;;-0.26;66.95;100307.41;4995041;28;20057;-62
2021/01/17 09:47:36;;;;;;;21.95;11.95;;;;;;;-0.45;67.49;100320.75;4980122;28;20042;-61
2021/01/17 09:50:09;;;;;;;18.13;10.25;;;;;;;-0.39;67.27;100315.69;4986773;28;20043;-61
2021/01/17 09:52:39;;;;;;;21.95;10.75;;;;;;;-0.46;68.16;100319.91;4970570;28;20342;-62
2021/01/17 09:55:09;;;;;;;18.20;11.23;;;;;;;-0.61;67.83;100323.19;4974919;28;20047;-63
2021/01/17 09:57:43;;;;;;;19.50;11.15;;;;;;;-0.58;68.46;100323.75;4976218;28;20046;-61
2021/01/17 10:00:16;;;;;;;19.50;11.40;;;;;;;-0.53;69.47;100323.28;4979659;28;20045;-61
2021/01/17 10:02:41;;;;;;;18.50;10.93;;;;;;;-0.58;68.39;100320.25;4960882;28;20549;-62
2021/01/17 10:05:07;;;;;;;19.95;11.10;;;;;;;-0.42;67.14;100325.78;4977080;28;20047;-61
2021/01/17 10:07:34;;;;;;;19.23;11.73;;;;;;;-0.21;67.22;100317.56;4971159;28;20409;-61
2021/01/17 10:10:08;;;;;;;17.70;10.40;;;;;;;-0.05;65.40;100315.94;4957051;28;20129;-61
2021/01/17 10:12:34;;;;;;;18.20;10.52;;;;;;;-0.12;65.46;100312.22;4961938;28;20424;-61
2021/01/17 10:14:59;;;;;;;16.17;10.10;;;;;;;-0.19;67.33;100320.91;4990811;28;20034;-61
2021/01/17 10:17:25;;;;;;;17.48;10.77;;;;;;;-0.13;67.25;100315.88;4995671;28;20045;-61
2021/01/17 10:19:52;;;;;;;23.00;11.98;;;;;;;-0.04;67.26;100320.28;4969335;28;20043;-61
2021/01/17 10:22:19;;;;;;;18.92;10.80;;;;;;;0.19;66.15;100315.38;4960896;28;20030;-61
2021/01/17 10:24:46;;;;;;;22.60;12.07;;;;;;;0.27;65.38;100314.63;4949141;28;20098;-61
2021/01/17 10:27:16;;;;;;;18.67;11.23;;;;;;;0.00;66.12;100311.00;4926575;29;20118;-61
2021/01/17 10:29:42;;;;;;;18.48;10.45;;;;;;;0.07;65.45;100324.56;4925772;28;20521;-62
2021/01/17 10:32:09;;;;;;;22.40;11.52;;;;;;;0.29;65.33;100328.63;4930270;28;20043;-62
2021/01/17 10:34:40;;;;;;;20.73;11.63;;;;;;;0.31;66.23;100321.34;4928282;28;20043;-61
2021/01/17 10:37:07;;;;;;;19.95;11.57;;;;;;;0.39;67.58;100326.72;4943896;28;20551;-61
2021/01/17 10:39:37;;;;;;;19.77;10.90;;;;;;;0.28;65.75;100325.13;4926013;28;20448;-59
2021/01/17 10:42:18;;;;;;;19.57;12.20;;;;;;;0.43;66.24;100333.44;4981059;28;20129;-62
2021/01/17 10:45:10;;;;;;;16.70;10.38;;;;;;;0.44;65.37;100327.13;4958959;28;20119;-60
2021/01/17 10:47:58;;;;;;;22.08;12.57;;;;;;;0.31;67.09;100324.00;4966434;28;20053;-59
2021/01/17 10:50:25;;;;;;;19.20;12.15;;;;;;;0.37;66.98;100318.06;4963004;28;20046;-59
2021/01/17 10:52:59;;;;;;;19.08;11.02;;;;;;;0.29;66.10;100326.78;4984498;28;20039;-59
2021/01/17 10:55:33;;;;;;;21.88;11.07;;;;;;;0.40;63.97;100319.59;4960169;28;20043;-59
2021/01/17 10:58:01;;;;;;;21.15;11.75;;;;;;;0.49;64.32;100319.50;4948246;28;20045;-60
2021/01/17 11:00:27;;;;;;;18.63;11.45;;;;;;;0.62;64.65;100316.47;4963058;28;20038;-59
2021/01/17 11:03:01;;;;;;;20.42;12.25;;;;;;;0.53;62.89;100330.69;4964202;28;20052;-60
2021/01/17 11:05:28;;;;;;;22.85;11.45;;;;;;;0.22;64.74;100327.56;4963189;28;20049;-64
2021/01/17 11:07:53;;;;;;;18.42;11.32;;;;;;;0.40;64.68;100328.41;4948614;28;20110;-60
2021/01/17 11:10:19;;;;;;;19.38;11.15;;;;;;;0.45;63.58;100331.47;4950656;28;20046;-60
2021/01/17 11:12:45;;;;;;;22.60;13.05;;;;;;;0.46;64.63;100326.97;4948439;28;20050;-61
2021/01/17 11:15:19;;;;;;;20.63;12.55;;;;;;;0.51;62.79;100328.19;4948317;28;20428;-59
2021/01/17 11:17:56;;;;;;;19.50;12.00;;;;;;;0.57;63.76;100335.56;4948188;28;20134;-60
2021/01/17 11:20:30;;;;;;;19.02;12.00;;;;;;;0.29;63.35;100347.22;4930129;28;20286;-60
2021/01/17 11:23:00;;;;;;;23.08;12.38;;;;;;;0.26;64.60;100339.53;4956021;28;20513;-59
2021/01/17 11:25:26;;;;;;;18.75;10.88;;;;;;;0.32;65.29;100346.94;4958959;28;20500;-60
2021/01/17 11:27:57;;;;;;;23.42;12.02;;;;;;;0.50;65.43;100346.94;4946133;28;20046;-60
2021/01/17 11:30:25;;;;;;;23.20;11.90;;;;;;;0.26;63.92;100342.22;4946635;28;20043;-59
2021/01/17 11:32:52;;;;;;;23.33;11.63;;;;;;;0.40;63.15;100348.84;4947341;28;20097;-60
2021/01/17 11:35:26;;;;;;;20.05;12.02;;;;;;;0.12;62.74;100348.03;4946674;28;20047;-60
2021/01/17 11:37:52;;;;;;;21.10;13.00;;;;;;;-0.06;63.33;100354.13;4947447;28;20109;-60
2021/01/17 11:40:21;;;;;;;23.10;12.25;;;;;;;0.14;64.04;100343.41;4955645;28;20057;-59
2021/01/17 11:43:13;;;;;;;21.95;12.45;;;;;;;0.09;64.08;100348.34;4966838;28;20045;-60
2021/01/17 11:45:43;;;;;;;27.55;11.65;;;;;;;0.02;63.08;100350.72;4984179;28;20684;-60
2021/01/17 11:48:10;;;;;;;23.38;12.88;;;;;;;0.17;63.21;100354.56;4951495;28;20121;-60
2021/01/17 11:50:40;;;;;;;19.45;12.10;;;;;;;0.07;63.48;100355.63;4951550;28;20472;-59
2021/01/17 11:53:08;;;;;;;22.65;12.75;;;;;;;0.28;63.51;100348.22;4967966;28;20072;-60
2021/01/17 11:55:33;;;;;;;25.10;13.63;;;;;;;0.45;63.46;100351.91;4948295;28;20058;-60
2021/01/17 11:58:08;;;;;;;21.98;12.50;;;;;;;0.36;62.79;100354.44;4955417;28;20035;-61
2021/01/17 12:00:45;;;;;;;22.55;12.20;;;;;;;0.22;63.55;100356.81;4936742;28;20043;-61
2021/01/17 12:03:21;;;;;;;20.30;11.70;;;;;;;0.36;63.74;100358.94;4946207;28;20105;-60
2021/01/17 12:06:07;;;;;;;19.45;12.63;;;;;;;0.47;63.14;100352.56;4983702;28;20502;-61
2021/01/17 12:08:52;;;;;;;23.42;12.93;;;;;;;0.32;62.77;100352.25;4955006;28;20062;-61
2021/01/17 12:11:37;;;;;;;23.30;13.50;;;;;;;0.39;62.63;100352.47;4942074;28;20524;-60
2021/01/17 12:14:06;;;;;;;24.52;13.23;;;;;;;0.36;63.23;100345.63;4938996;28;20366;-61
2021/01/17 12:16:34;;;;;;;20.48;12.25;;;;;;;0.47;63.16;100345.41;4942443;28;20039;-60
2021/01/17 12:19:00;;;;;;;27.38;13.90;;;;;;;0.38;62.72;100345.50;4951530;28;20066;-60
2021/01/17 12:21:30;;;;;;;23.88;13.45;;;;;;;0.43;63.02;100348.53;4967191;28;20065;-62
2021/01/17 12:23:58;;;;;;;19.98;12.35;;;;;;;0.28;62.18;100337.56;4960163;28;20401;-61
2021/01/17 12:26:25;;;;;;;25.23;13.23;;;;;;;0.18;63.25;100342.13;4960480;28;20397;-59
2021/01/17 12:28:51;;;;;;;20.65;12.35;;;;;;;0.46;64.02;100338.44;4967423;28;20046;-60
2021/01/17 12:31:19;;;;;;;23.33;13.18;;;;;;;0.36;63.54;100338.50;4985421;28;20117;-62
2021/01/17 12:33:45;;;;;;;22.58;12.52;;;;;;;0.40;63.36;100339.03;4966782;28;20038;-60
2021/01/17 12:36:16;;;;;;;24.17;13.40;;;;;;;0.49;62.25;100337.28;4983154;28;20038;-60
2021/01/17 12:38:43;;;;;;;23.07;13.73;;;;;;;0.34;63.09;100331.69;4966798;28;20042;-62
2021/01/17 12:41:11;;;;;;;27.27;14.75;;;;;;;0.43;63.35;100343.22;4977823;28;20466;-60
2021/01/17 12:43:38;;;;;;;21.40;13.02;;;;;;;0.03;63.70;100346.25;4967003;28;20041;-59
2021/01/17 12:46:05;;;;;;;21.92;12.93;;;;;;;0.15;63.87;100342.41;4963930;28;20038;-60
2021/01/17 12:48:31;;;;;;;23.73;13.55;;;;;;;0.16;64.18;100347.59;4966827;28;20069;-59
2021/01/17 12:50:57;;;;;;;22.77;13.32;;;;;;;0.17;65.17;100346.59;4961024;28;20038;-61
2021/01/17 12:53:22;;;;;;;28.35;13.20;;;;;;;0.12;64.39;100346.19;4959144;28;20534;-59
2021/01/17 12:55:49;;;;;;;24.15;12.38;;;;;;;0.01;64.31;100341.09;4962001;28;20046;-61
2021/01/17 12:58:16;;;;;;;21.08;12.18;;;;;;;0.38;62.54;100346.31;4964630;28;20035;-60
2021/01/17 13:00:42;;;;;;;24.00;13.32;;;;;;;0.42;63.58;100352.19;4946992;28;20039;-59
2021/01/17 13:03:08;;;;;;;20.38;11.10;;;;;;;0.00;61.02;100348.22;4927757;28;20455;-61
2021/01/17 13:05:34;;;;;;;22.02;12.27;;;;;;;-0.20;61.84;100353.78;4944928;28;20633;-60
2021/01/17 13:08:01;;;;;;;19.02;11.05;;;;;;;-0.17;62.74;100351.69;4929957;28;20382;-60
2021/01/17 13:10:27;;;;;;;20.75;11.70;;;;;;;-0.42;64.92;100357.63;4946976;28;20056;-62
2021/01/17 13:12:53;;;;;;;23.55;11.55;;;;;;;-0.42;64.45;100349.66;4959155;28;20082;-62
2021/01/17 13:15:20;;;;;;;20.25;11.00;;;;;;;-0.40;63.50;100351.22;4955534;28;20038;-60
2021/01/17 13:17:46;;;;;;;18.23;10.13;;;;;;;-0.29;64.67;100350.19;4969246;28;20504;-60
2021/01/17 13:20:12;;;;;;;19.45;10.65;;;;;;;-0.31;65.00;100348.66;4948441;28;20046;-60
2021/01/17 13:22:38;;;;;;;22.67;11.18;;;;;;;-0.05;63.89;100345.19;4947811;28;20039;-61
2021/01/17 13:25:05;;;;;;;22.27;10.80;;;;;;;-0.11;63.69;100350.22;4965443;28;20054;-59
2021/01/17 13:27:32;;;;;;;20.77;11.05;;;;;;;-0.26;62.73;100341.09;4955533;28;20043;-60
2021/01/17 13:29:58;;;;;;;19.73;11.15;;;;;;;-0.29;63.50;100352.00;4964273;28;20510;-59
2021/01/17 13:32:24;;;;;;;18.58;10.35;;;;;;;-0.29;63.02;100355.50;4964074;28;20313;-61
2021/01/17 13:34:50;;;;;;;21.77;12.35;;;;;;;-0.23;64.14;100357.56;4956360;28;20058;-60
2021/01/17 13:37:17;;;;;;;20.25;10.60;;;;;;;-0.31;64.04;100357.47;4964258;28;20054;-61
2021/01/17 13:39:46;;;;;;;21.33;10.57;;;;;;;-0.15;64.15;100359.50;4953426;28;20042;-62
2021/01/17 13:42:21;;;;;;;17.13;10.82;;;;;;;-0.21;63.79;100370.69;4981368;28;20393;-60
2021/01/17 13:44:48;;;;;;;20.17;10.73;;;;;;;-0.31;63.92;100369.91;4982220;28;20045;-61
2021/01/17 13:47:22;;;;;;;19.35;10.18;;;;;;;-0.21;64.92;100366.22;4981867;28;20423;-62
2021/01/17 13:49:54;;;;;;;22.00;9.77;;;;;;;-0.21;64.64;100371.53;4982810;28;20062;-59
2021/01/17 13:52:20;;;;;;;;;;;;;;;-0.26;64.63;100376.47;4950003;28;20145;-60
2021/01/17 13:54:45;;;;;;;17.55;10.35;;;;;;;-0.28;65.16;100367.81;4946561;28;19929;-61
2021/01/17 13:57:11;;;;;;;19.70;10.38;;;;;;;-0.30;62.47;100372.41;4946261;28;20038;-60
2021/01/17 13:59:40;;;;;;;20.65;10.60;;;;;;;-0.31;64.63;100378.72;4947414;28;20047;-60
2021/01/17 14:02:16;;;;;;;16.50;9.43;;;;;;;-0.22;63.28;100377.84;4949285;28;20158;-60
2021/01/17 14:04:43;;;;;;;18.17;10.35;;;;;;;-0.28;64.32;100381.09;4953822;28;20129;-60
2021/01/17 14:07:12;;;;;;;17.08;8.95;;;;;;;-0.49;62.85;100381.28;4948421;28;20047;-60
2021/01/17 14:09:39;;;;;;;16.25;9.32;;;;;;;-0.49;63.33;100385.78;4949634;28;20457;-60
2021/01/17 14:12:09;;;;;;;23.20;10.82;;;;;;;-0.41;64.33;100383.22;4966430;28;20413;-61
2021/01/17 14:14:36;;;;;;;13.88;8.93;;;;;;;-0.50;65.43;100386.75;4963888;28;20365;-60
2021/01/17 14:17:03;;;;;;;17.73;9.50;;;;;;;-0.41;64.86;100388.53;4965598;28;20034;-60
2021/01/17 14:19:31;;;;;;;17.38;9.38;;;;;;;-0.60;63.38;100386.78;4964595;28;20191;-59
2021/01/17 14:21:57;;;;;;;19.52;10.00;;;;;;;-0.57;64.45;100382.97;4950465;28;20071;-59
2021/01/17 14:24:23;;;;;;;18.70;9.68;;;;;;;-0.59;65.18;100382.31;4950029;28;20114;-59
2021/01/17 14:26:51;;;;;;;21.55;12.05;;;;;;;-0.69;66.22;100398.22;4959458;28;20042;-61
2021/01/17 14:29:17;;;;;;;24.05;11.95;;;;;;;-0.82;66.29;100397.72;4968903;28;20406;-61
2021/01/17 14:31:45;;;;;;;24.55;13.02;;;;;;;-0.93;67.29;100404.00;4986581;28;20048;-62
2021/01/17 14:34:12;;;;;;;25.33;13.57;;;;;;;-0.88;68.27;100401.75;4970310;28;20672;-59
2021/01/17 14:36:49;;;;;;;23.23;13.25;;;;;;;-1.05;69.35;100399.81;4971148;28;20396;-59
2021/01/17 14:39:22;;;;;;;23.23;14.00;;;;;;;-1.16;68.69;100406.09;4969937;28;20034;-61
2021/01/17 14:42:01;;;;;;;23.77;12.75;;;;;;;-1.25;68.71;100414.88;4968701;28;20527;-60
2021/01/17 14:44:28;;;;;;;23.65;13.65;;;;;;;-1.40;68.79;100405.66;4970962;28;20423;-60
2021/01/17 14:46:55;;;;;;;27.55;14.95;;;;;;;-1.38;69.26;100406.34;4985613;28;20043;-61
2021/01/17 14:49:23;;;;;;;24.20;13.95;;;;;;;-1.51;69.40;100408.44;4972276;28;20042;-60
2021/01/17 14:51:49;;;;;;;25.60;14.68;;;;;;;-1.52;70.20;100404.09;4966992;28;20035;-58
2021/01/17 14:54:20;;;;;;;25.65;13.95;;;;;;;-1.44;70.45;100408.72;4983318;28;20117;-61
2021/01/17 14:56:53;;;;;;;28.25;15.57;;;;;;;-1.37;69.59;100413.31;4947148;28;20049;-60
2021/01/17 14:59:30;;;;;;;23.98;13.00;;;;;;;-1.43;69.44;100413.03;4951497;28;20050;-59
2021/01/17 15:01:58;;;;;;;23.20;12.02;;;;;;;-1.44;69.75;100417.50;4951720;28;20042;-57
2021/01/17 15:04:24;;;;;;;29.05;13.20;;;;;;;-1.41;70.74;100416.41;4965556;28;20395;-60
2021/01/17 15:06:50;;;;;;;28.73;14.27;;;;;;;-1.37;70.44;100426.56;4965136;28;20062;-59
2021/01/17 15:09:17;;;;;;;25.15;12.35;;;;;;;-1.34;72.25;100425.47;4952588;28;20062;-60
2021/01/17 15:11:44;;;;;;;28.13;13.55;;;;;;;-1.36;74.74;100425.59;4966942;28;20171;-59
2021/01/17 15:14:11;;;;;;;24.08;14.25;;;;;;;-1.01;76.30;100427.72;4982761;28;20046;-59
2021/01/17 15:16:38;;;;;;;21.90;12.30;;;;;;;-1.23;73.31;100431.50;4980564;28;20353;-60
2021/01/17 15:19:05;;;;;;;24.08;11.88;;;;;;;-1.29;75.13;100429.41;4982961;28;20086;-60
2021/01/17 15:21:32;;;;;;;24.77;12.60;;;;;;;-1.43;75.39;100437.75;4976912;28;20335;-59
2021/01/17 15:23:58;;;;;;;21.40;11.75;;;;;;;-1.50;75.78;100428.66;4951088;28;20444;-60
2021/01/17 15:26:25;;;;;;;25.25;13.45;;;;;;;-1.54;76.33;100438.69;4950170;28;20382;-60
2021/01/17 15:28:52;;;;;;;21.40;12.50;;;;;;;-1.61;76.47;100442.84;4949318;28;20136;-59
2021/01/17 15:31:19;;;;;;;24.15;12.68;;;;;;;-1.73;77.88;100451.88;4949708;28;20420;-61
2021/01/17 15:33:45;;;;;;;19.50;11.70;;;;;;;-1.77;77.53;100447.00;4951465;28;20105;-60
2021/01/17 15:36:14;;;;;;;22.60;12.15;;;;;;;-1.75;76.60;100450.34;4950239;28;20047;-61
2021/01/17 15:38:49;;;;;;;29.77;12.40;;;;;;;-1.86;75.88;100452.13;4950209;28;20248;-61
2021/01/17 15:41:22;;;;;;;21.40;11.73;;;;;;;-2.07;74.98;100459.28;4981304;28;20150;-60
2021/01/17 15:43:48;;;;;;;29.23;15.75;;;;;;;-2.11;75.02;100463.19;4969381;28;20034;-62
2021/01/17 15:46:14;;;;;;;28.73;14.05;;;;;;;-2.39;74.32;100456.72;4985077;28;20042;-60
2021/01/17 15:48:46;;;;;;;23.48;12.75;;;;;;;-2.41;74.83;100452.53;4982829;28;20042;-61
2021/01/17 15:51:13;;;;;;;23.90;12.27;;;;;;;-2.52;73.51;100456.09;4966746;28;20034;-61
2021/01/17 15:53:39;;;;;;;27.80;15.20;;;;;;;-2.62;73.43;100456.03;4984900;28;20097;-61
2021/01/17 15:56:05;;;;;;;29.88;14.32;;;;;;;-2.59;72.65;100458.41;4984001;28;20038;-60
2021/01/17 15:58:31;;;;;;;26.20;13.68;;;;;;;-2.58;72.67;100464.56;4976766;28;20038;-59
2021/01/17 16:00:58;;;;;;;26.92;13.57;;;;;;;-2.70;74.05;100469.06;4974413;28;20116;-59
2021/01/17 16:03:27;;;;;;;29.92;13.48;;;;;;;-2.78;74.97;100471.53;4965560;28;20527;-60
2021/01/17 16:06:01;;;;;;;24.60;13.07;;;;;;;-2.87;74.61;100463.47;4965820;28;20046;-62
2021/01/17 16:08:29;;;;;;;27.27;14.02;;;;;;;-2.86;75.28;100473.09;4964207;28;20636;-60
2021/01/17 16:10:56;;;;;;;25.73;13.52;;;;;;;-3.13;73.95;100476.22;4943938;28;20512;-61
2021/01/17 16:13:24;;;;;;;29.05;13.98;;;;;;;-3.26;74.63;100472.91;4965010;28;20042;-59
2021/01/17 16:15:50;;;;;;;28.92;14.35;;;;;;;-3.45;74.11;100482.28;4962528;28;20551;-60
2021/01/17 16:18:17;;;;;;;41.55;17.58;;;;;;;-3.58;75.22;100486.91;4970824;28;20400;-59
2021/01/17 16:20:47;;;;;;;36.60;15.82;;;;;;;-3.77;74.47;100492.78;4950263;28;20081;-61
2021/01/17 16:23:13;;;;;;;28.63;13.95;;;;;;;-3.93;75.38;100494.97;4947192;28;20075;-60
2021/01/17 16:25:39;;;;;;;30.30;14.00;;;;;;;-4.03;74.34;100497.44;4948451;28;20066;-61
2021/01/17 16:28:05;;;;;;;29.60;14.43;;;;;;;-3.86;75.79;100504.06;4949736;28;20615;-59
2021/01/17 16:30:32;;;;;;;27.23;13.93;;;;;;;-4.07;75.12;100501.31;4949907;28;21560;-59
2021/01/17 16:33:04;;;;;;;28.42;14.45;;;;;;;-4.02;76.20;100509.69;4948861;28;20047;-60